Time;durP1;ratioP1;P1;durP2;ratioP2;P2;SDS_P1;SDS_P2;PMS_P1;PMS_P2;Temp;Humidity;BMP_temperature;BMP_pressure;BME280_temperature;BME280_humidity;BME280_pressure;Samples;Min_cycle;Max_cycle;Signal;HPM_P1;HPM_P2
2022/01/07 00:02:06;;;;;;;0.00;0.00;;;;;19.20;100679.00;;;;5086524;28;20040;-75
2022/01/07 00:04:36;;;;;;;0.00;0.00;;;;;19.20;100677.00;;;;5086199;28;20040;-75
2022/01/07 00:07:07;;;;;;;0.20;0.03;;;;;19.20;100675.00;;;;5086300;28;20040;-74
2022/01/07 00:09:37;;;;;;;0.22;0.22;;;;;19.20;100689.00;;;;5086057;28;20067;-75
2022/01/07 00:12:08;;;;;;;0.00;0.00;;;;;19.10;100691.00;;;;5086380;28;20044;-76
2022/01/07 00:14:37;;;;;;;2.72;0.35;;;;;19.00;100690.00;;;;5085462;28;20067;-76
2022/01/07 00:17:06;;;;;;;0.20;0.00;;;;;19.00;100690.00;;;;5085763;28;20533;-76
2022/01/07 00:19:36;;;;;;;0.00;0.00;;;;;18.90;100692.00;;;;5087047;28;20046;-76
2022/01/07 00:22:06;;;;;;;0.47;0.38;;;;;18.80;100683.00;;;;5088978;28;21136;-76
2022/01/07 00:24:35;;;;;;;0.00;0.00;;;;;18.80;100704.00;;;;5089738;28;20506;-75
2022/01/07 00:27:05;;;;;;;0.35;0.22;;;;;18.80;100695.00;;;;5089534;28;20037;-76
2022/01/07 00:29:52;;;;;;;0.15;0.03;;;;;18.90;100711.00;;;;5084967;28;20124;-76
2022/01/07 00:32:21;;;;;;;0.15;0.10;;;;;18.80;100698.00;;;;5080390;28;20093;-76
2022/01/07 00:34:51;;;;;;;0.00;0.00;;;;;18.80;100708.00;;;;5077683;28;20029;-75
2022/01/07 00:37:20;;;;;;;0.00;0.00;;;;;18.80;100693.00;;;;5080977;28;20086;-75
2022/01/07 00:39:50;;;;;;;0.00;0.00;;;;;18.70;100715.00;;;;5069094;28;20044;-75
2022/01/07 00:42:20;;;;;;;0.32;0.32;;;;;18.60;100703.00;;;;5068276;28;20139;-75
2022/01/07 00:44:49;;;;;;;0.00;0.00;;;;;18.50;100706.00;;;;5067832;28;20669;-76
2022/01/07 00:47:19;;;;;;;0.00;0.00;;;;;18.50;100700.00;;;;5068709;28;20496;-76
2022/01/07 00:49:48;;;;;;;0.00;0.00;;;;;18.50;100693.00;;;;5068279;28;20526;-75
2022/01/07 00:52:17;;;;;;;0.00;0.00;;;;;18.50;100692.00;;;;5072626;28;20040;-76
2022/01/07 00:54:47;;;;;;;0.00;0.00;;;;;18.60;100706.00;;;;5069451;28;20051;-75
2022/01/07 00:57:17;;;;;;;0.00;0.00;;;;;18.40;100693.00;;;;5067809;28;20419;-75
2022/01/07 00:59:46;;;;;;;0.00;0.00;;;;;18.30;100704.00;;;;5068272;28;20438;-75
2022/01/07 01:02:16;;;;;;;0.00;0.00;;;;;18.20;100715.00;;;;5076693;28;20066;-75
2022/01/07 01:04:46;;;;;;;0.05;0.05;;;;;18.20;100731.00;;;;5078763;28;20043;-76
2022/01/07 01:07:16;;;;;;;0.00;0.00;;;;;18.10;100721.00;;;;5081701;28;20044;-75
2022/01/07 01:09:46;;;;;;;0.00;0.00;;;;;18.00;100711.00;;;;5079928;28;20498;-75
2022/01/07 01:12:15;;;;;;;0.00;0.00;;;;;18.10;100720.00;;;;5076977;28;20107;-75
2022/01/07 01:14:45;;;;;;;0.00;0.00;;;;;18.20;100727.00;;;;5075940;28;20064;-76
2022/01/07 01:17:14;;;;;;;0.00;0.00;;;;;18.10;100709.00;;;;5082678;28;20059;-76
2022/01/07 01:19:43;;;;;;;0.00;0.00;;;;;17.90;100726.00;;;;5077115;28;20062;-76
2022/01/07 01:22:13;;;;;;;0.00;0.00;;;;;17.70;100738.00;;;;5076181;28;20037;-75
2022/01/07 01:24:42;;;;;;;0.45;0.13;;;;;17.60;100719.00;;;;5075688;28;20435;-75
2022/01/07 01:27:12;;;;;;;0.00;0.00;;;;;17.50;100719.00;;;;5080009;28;20040;-73
2022/01/07 01:29:41;;;;;;;0.00;0.00;;;;;17.40;100734.00;;;;5082265;28;20058;-76
2022/01/07 01:32:11;;;;;;;0.00;0.00;;;;;17.40;100710.00;;;;5087955;28;20040;-74
2022/01/07 01:34:40;;;;;;;0.00;0.00;;;;;17.40;100725.00;;;;5083729;28;20036;-74
2022/01/07 01:37:10;;;;;;;0.00;0.00;;;;;17.30;100730.00;;;;5086267;28;20135;-76
2022/01/07 01:39:39;;;;;;;0.00;0.00;;;;;17.20;100713.00;;;;5088054;28;20040;-74
2022/01/07 01:42:09;;;;;;;0.00;0.00;;;;;17.10;100716.00;;;;5087065;28;20044;-76
2022/01/07 01:44:39;;;;;;;0.00;0.00;;;;;17.10;100718.00;;;;5088147;28;20051;-74
2022/01/07 01:47:09;;;;;;;0.00;0.00;;;;;17.10;100713.00;;;;5086742;28;20453;-74
2022/01/07 01:49:38;;;;;;;0.00;0.00;;;;;17.10;100717.00;;;;5088565;28;20040;-76
2022/01/07 01:52:08;;;;;;;0.00;0.00;;;;;17.00;100720.00;;;;5087149;28;20055;-74
2022/01/07 01:54:37;;;;;;;0.00;0.00;;;;;17.00;100717.00;;;;5088763;28;20052;-76
2022/01/07 01:57:07;;;;;;;0.00;0.00;;;;;17.00;100721.00;;;;5089195;28;20063;-76
2022/01/07 01:59:37;;;;;;;0.00;0.00;;;;;16.90;100694.00;;;;5088997;28;20510;-76
2022/01/07 02:02:09;;;;;;;0.00;0.00;;;;;17.00;100707.00;;;;5086836;28;20134;-76
2022/01/07 02:04:40;;;;;;;0.00;0.00;;;;;17.00;100710.00;;;;5087921;28;20047;-77
2022/01/07 02:07:14;;;;;;;0.00;0.00;;;;;16.90;100698.00;;;;5087874;28;20040;-76
2022/01/07 02:09:43;;;;;;;0.00;0.00;;;;;16.80;100691.00;;;;5088071;28;20043;-76
2022/01/07 02:12:13;;;;;;;0.00;0.00;;;;;16.70;100692.00;;;;5087053;28;20044;-76
2022/01/07 02:14:52;;;;;;;0.00;0.00;;;;;16.60;100695.00;;;;5086926;28;20518;-76
2022/01/07 02:17:25;;;;;;;0.00;0.00;;;;;16.60;100687.00;;;;5087910;28;20044;-76
2022/01/07 02:19:55;;;;;;;0.00;0.00;;;;;16.60;100675.00;;;;5087847;28;20388;-76
2022/01/07 02:22:25;;;;;;;0.00;0.00;;;;;16.60;100689.00;;;;5087561;28;20056;-76
2022/01/07 02:24:54;;;;;;;0.00;0.00;;;;;16.50;100684.00;;;;5086902;28;20051;-76
2022/01/07 02:27:24;;;;;;;0.00;0.00;;;;;16.40;100664.00;;;;5088327;28;20040;-76
2022/01/07 02:29:54;;;;;;;0.00;0.00;;;;;16.50;100684.00;;;;5087996;28;20123;-77
2022/01/07 02:32:23;;;;;;;0.00;0.00;;;;;16.50;100679.00;;;;5087525;28;20044;-76
2022/01/07 02:34:53;;;;;;;0.00;0.00;;;;;16.60;100667.00;;;;5086963;28;20078;-77
2022/01/07 02:37:22;;;;;;;0.00;0.00;;;;;16.60;100681.00;;;;5087427;28;20048;-76
2022/01/07 02:39:54;;;;;;;0.00;0.00;;;;;16.40;100673.00;;;;5087845;28;20052;-75
2022/01/07 02:42:25;;;;;;;0.00;0.00;;;;;16.20;100669.00;;;;5087807;28;20765;-74
2022/01/07 02:44:54;;;;;;;0.00;0.00;;;;;16.10;100678.00;;;;5086535;28;20044;-75
2022/01/07 02:47:29;;;;;;;0.00;0.00;;;;;16.00;100679.00;;;;5086487;28;20043;-74
2022/01/07 02:50:05;;;;;;;0.00;0.00;;;;;16.10;100674.00;;;;5088317;28;20050;-74
2022/01/07 02:52:35;;;;;;;0.00;0.00;;;;;16.00;100664.00;;;;5087502;28;20046;-75
2022/01/07 02:55:04;;;;;;;0.00;0.00;;;;;15.90;100665.00;;;;5087391;28;20486;-75
2022/01/07 02:57:34;;;;;;;0.00;0.00;;;;;15.90;100681.00;;;;5085206;28;20113;-74
2022/01/07 03:00:06;;;;;;;0.00;0.00;;;;;15.80;100664.00;;;;5085904;28;20161;-75
2022/01/07 03:02:36;;;;;;;0.00;0.00;;;;;15.80;100655.00;;;;5087078;28;20395;-74
2022/01/07 03:05:05;;;;;;;0.00;0.00;;;;;15.90;100672.00;;;;5085705;28;20044;-74
2022/01/07 03:07:36;;;;;;;0.00;0.00;;;;;15.90;100665.00;;;;5086841;28;20044;-74
2022/01/07 03:10:06;;;;;;;0.00;0.00;;;;;16.00;100669.00;;;;5087451;28;20048;-74
2022/01/07 03:12:37;;;;;;;;;;;;;16.00;100679.00;;;;5087629;28;20036;-75
2022/01/07 03:15:07;;;;;;;0.00;0.00;;;;;15.90;100656.00;;;;5087859;28;20382;-75
2022/01/07 03:17:39;;;;;;;0.00;0.00;;;;;15.90;100679.00;;;;5086978;28;20503;-74
2022/01/07 03:20:13;;;;;;;0.00;0.00;;;;;16.00;100660.00;;;;5086902;28;20046;-74
2022/01/07 03:22:45;;;;;;;0.00;0.00;;;;;15.90;100666.00;;;;5086625;28;20089;-75
2022/01/07 03:25:15;;;;;;;;;;;;;15.80;100674.00;;;;5087197;28;20040;-76
2022/01/07 03:27:45;;;;;;;0.00;0.00;;;;;15.80;100665.00;;;;5087279;28;20354;-75
2022/01/07 03:30:18;;;;;;;0.00;0.00;;;;;15.80;100648.00;;;;5086576;28;20061;-75
2022/01/07 03:32:48;;;;;;;0.00;0.00;;;;;15.70;100639.00;;;;5086792;28;20048;-75
2022/01/07 03:35:18;;;;;;;0.00;0.00;;;;;15.70;100661.00;;;;5085605;28;20426;-75
2022/01/07 03:37:49;;;;;;;0.00;0.00;;;;;15.70;100635.00;;;;5086463;28;20048;-75
2022/01/07 03:40:21;;;;;;;0.00;0.00;;;;;15.70;100655.00;;;;5087404;28;20051;-75
2022/01/07 03:42:51;;;;;;;0.00;0.00;;;;;15.70;100652.00;;;;5086371;28;20376;-75
2022/01/07 03:45:21;;;;;;;0.00;0.00;;;;;15.70;100631.00;;;;5085195;28;20109;-75
2022/01/07 03:47:52;;;;;;;0.00;0.00;;;;;15.80;100627.00;;;;5087260;28;20494;-75
2022/01/07 03:50:26;;;;;;;10.80;0.20;;;;;15.90;100646.00;;;;5086731;28;20044;-75
2022/01/07 03:52:57;;;;;;;0.00;0.00;;;;;16.10;100633.00;;;;5086388;28;20060;-75
2022/01/07 03:55:30;;;;;;;0.05;0.05;;;;;16.20;100642.00;;;;5086308;28;20067;-75
2022/01/07 03:58:00;;;;;;;0.00;0.00;;;;;16.30;100634.00;;;;5088448;28;20063;-75
2022/01/07 04:00:34;;;;;;;0.00;0.00;;;;;16.40;100621.00;;;;5089177;28;20443;-75
2022/01/07 04:03:06;;;;;;;0.00;0.00;;;;;16.40;100626.00;;;;5090898;28;20537;-75
2022/01/07 04:05:36;;;;;;;0.00;0.00;;;;;16.50;100626.00;;;;5090816;28;20478;-75
2022/01/07 04:08:07;;;;;;;0.00;0.00;;;;;16.60;100613.00;;;;5090800;28;20491;-75
2022/01/07 04:10:37;;;;;;;0.00;0.00;;;;;16.70;100610.00;;;;5089032;28;20077;-75
2022/01/07 04:13:06;;;;;;;0.00;0.00;;;;;16.80;100598.00;;;;5088811;28;20294;-75
2022/01/07 04:15:36;;;;;;;0.00;0.00;;;;;16.90;100601.00;;;;5090588;28;20564;-75
2022/01/07 04:18:06;;;;;;;0.00;0.00;;;;;16.90;100583.00;;;;5089969;28;20051;-75
2022/01/07 04:20:37;;;;;;;0.00;0.00;;;;;17.00;100590.00;;;;5088429;28;20049;-75
2022/01/07 04:23:07;;;;;;;0.00;0.00;;;;;17.00;100595.00;;;;5090264;28;20074;-74
2022/01/07 04:25:39;;;;;;;0.00;0.00;;;;;17.10;100600.00;;;;5090613;28;20051;-75
2022/01/07 04:28:09;;;;;;;0.00;0.00;;;;;17.20;100580.00;;;;5090735;28;20044;-75
2022/01/07 04:30:42;;;;;;;0.00;0.00;;;;;17.30;100582.00;;;;5089835;28;20093;-75
2022/01/07 04:33:14;;;;;;;0.00;0.00;;;;;17.40;100583.00;;;;5090571;28;20124;-75
2022/01/07 04:35:44;;;;;;;0.00;0.00;;;;;17.40;100593.00;;;;5089916;28;20419;-75
2022/01/07 04:38:14;;;;;;;0.00;0.00;;;;;17.50;100594.00;;;;5090090;28;20047;-75
2022/01/07 04:40:44;;;;;;;0.00;0.00;;;;;17.50;100566.00;;;;5090423;28;20043;-75
2022/01/07 04:43:14;;;;;;;0.00;0.00;;;;;17.60;100551.00;;;;5089989;28;20052;-75
2022/01/07 04:45:44;;;;;;;0.00;0.00;;;;;17.70;100569.00;;;;5089390;28;20040;-76
2022/01/07 04:48:13;;;;;;;0.00;0.00;;;;;17.70;100570.00;;;;5088096;28;20097;-75
2022/01/07 04:50:43;;;;;;;0.00;0.00;;;;;17.70;100568.00;;;;5089898;28;20043;-75
2022/01/07 04:53:13;;;;;;;0.00;0.00;;;;;17.80;100547.00;;;;5089746;28;20036;-75
2022/01/07 04:55:44;;;;;;;0.00;0.00;;;;;17.80;100541.00;;;;5089604;28;20032;-75
2022/01/07 04:58:15;;;;;;;0.00;0.00;;;;;17.80;100549.00;;;;5089025;28;20044;-75
2022/01/07 05:00:44;;;;;;;0.00;0.00;;;;;17.80;100546.00;;;;5089799;28;20044;-75
2022/01/07 05:03:14;;;;;;;0.00;0.00;;;;;17.90;100559.00;;;;5089689;28;20391;-75
2022/01/07 05:05:49;;;;;;;0.00;0.00;;;;;17.80;100539.00;;;;5088092;28;20055;-76
2022/01/07 05:08:19;;;;;;;0.00;0.00;;;;;17.90;100530.00;;;;5089061;28;20075;-75
2022/01/07 05:10:48;;;;;;;0.00;0.00;;;;;17.80;100542.00;;;;5089263;28;20054;-75
2022/01/07 05:13:18;;;;;;;0.00;0.00;;;;;17.80;100517.00;;;;5088136;28;20126;-75
2022/01/07 05:15:47;;;;;;;0.00;0.00;;;;;17.80;100522.00;;;;5089600;28;20044;-75
2022/01/07 05:18:17;;;;;;;0.00;0.00;;;;;17.80;100532.00;;;;5088980;28;20051;-75
2022/01/07 05:20:48;;;;;;;0.00;0.00;;;;;17.80;100523.00;;;;5089286;28;20557;-75
2022/01/07 05:23:18;;;;;;;0.00;0.00;;;;;17.80;100537.00;;;;5089118;28;20596;-76
2022/01/07 05:25:48;;;;;;;0.00;0.00;;;;;17.90;100515.00;;;;5090242;28;20048;-75
2022/01/07 05:28:18;;;;;;;0.00;0.00;;;;;17.90;100535.00;;;;5088433;28;20040;-75
2022/01/07 05:30:48;;;;;;;0.00;0.00;;;;;17.90;100529.00;;;;5089759;28;20192;-76
2022/01/07 05:33:17;;;;;;;0.00;0.00;;;;;17.90;100523.00;;;;5089028;28;20131;-76
2022/01/07 05:35:52;;;;;;;0.00;0.00;;;;;18.00;100533.00;;;;5087476;28;20048;-76
2022/01/07 05:38:22;;;;;;;0.00;0.00;;;;;18.00;100537.00;;;;5088813;28;20048;-77
2022/01/07 05:40:52;;;;;;;0.00;0.00;;;;;18.00;100542.00;;;;5087939;28;20067;-75
2022/01/07 05:43:22;;;;;;;0.00;0.00;;;;;18.00;100524.00;;;;5070687;28;20056;-77
2022/01/07 05:45:51;;;;;;;0.00;0.00;;;;;18.00;100531.00;;;;5088657;28;20121;-75
2022/01/07 05:48:22;;;;;;;0.00;0.00;;;;;17.90;100536.00;;;;5089262;28;20119;-75
2022/01/07 05:50:51;;;;;;;0.00;0.00;;;;;17.90;100529.00;;;;5088453;28;20059;-77
2022/01/07 05:53:21;;;;;;;0.00;0.00;;;;;17.90;100518.00;;;;5088736;28;20048;-77
2022/01/07 05:55:50;;;;;;;0.00;0.00;;;;;17.80;100524.00;;;;5086827;28;20506;-74
2022/01/07 05:58:20;;;;;;;0.00;0.00;;;;;17.90;100524.00;;;;5087195;28;20043;-77
2022/01/07 06:00:49;;;;;;;0.00;0.00;;;;;17.90;100524.00;;;;5087598;28;20075;-78
2022/01/07 06:03:18;;;;;;;0.00;0.00;;;;;18.00;100528.00;;;;5088257;28;20094;-76
2022/01/07 06:05:48;;;;;;;0.00;0.00;;;;;18.00;100535.00;;;;5088487;28;20056;-78
2022/01/07 06:08:18;;;;;;;0.00;0.00;;;;;18.00;100539.00;;;;5088134;28;20036;-75
2022/01/07 06:10:47;;;;;;;0.00;0.00;;;;;18.00;100526.00;;;;5070698;28;20109;-78
2022/01/07 06:13:17;;;;;;;0.00;0.00;;;;;17.90;100522.00;;;;5087735;28;20089;-80
2022/01/07 06:15:47;;;;;;;0.00;0.00;;;;;17.90;100515.00;;;;5088047;28;20039;-78
2022/01/07 06:18:16;;;;;;;0.00;0.00;;;;;17.80;100536.00;;;;5087700;28;20117;-77
2022/01/07 06:20:46;;;;;;;0.00;0.00;;;;;17.80;100517.00;;;;5087578;28;20135;-77
2022/01/07 06:23:16;;;;;;;0.00;0.00;;;;;17.80;100521.00;;;;5086685;28;20643;-76
2022/01/07 06:25:48;;;;;;;0.00;0.00;;;;;17.70;100518.00;;;;5087469;28;20097;-78
2022/01/07 06:28:18;;;;;;;0.00;0.00;;;;;17.80;100520.00;;;;5087962;28;20044;-77
2022/01/07 06:30:48;;;;;;;0.10;0.10;;;;;17.90;100520.00;;;;5087942;28;20047;-77
2022/01/07 06:33:17;;;;;;;0.00;0.00;;;;;17.90;100505.00;;;;5086365;28;20609;-78
2022/01/07 06:35:47;;;;;;;0.00;0.00;;;;;17.90;100528.00;;;;5086832;28;20050;-78
2022/01/07 06:38:17;;;;;;;0.00;0.00;;;;;17.90;100516.00;;;;5086498;28;20136;-77
2022/01/07 06:40:46;;;;;;;0.00;0.00;;;;;18.00;100521.00;;;;5087347;28;20044;-77
2022/01/07 06:43:15;;;;;;;0.00;0.00;;;;;18.00;100538.00;;;;5087548;28;20044;-78
2022/01/07 06:45:45;;;;;;;0.00;0.00;;;;;18.10;100516.00;;;;5085793;28;20503;-76
2022/01/07 06:48:14;;;;;;;0.00;0.00;;;;;18.10;100522.00;;;;5087538;28;20051;-77
2022/01/07 06:50:44;;;;;;;0.00;0.00;;;;;18.10;100527.00;;;;5085741;28;20085;-77
2022/01/07 06:53:13;;;;;;;0.00;0.00;;;;;18.10;100541.00;;;;5087707;28;20052;-79
2022/01/07 06:56:03;;;;;;;0.00;0.00;;;;;18.10;100534.00;;;;5085827;28;20402;-75
2022/01/07 06:58:33;;;;;;;0.00;0.00;;;;;18.10;100546.00;;;;5087116;28;20048;-75
2022/01/07 07:01:05;;;;;;;0.00;0.00;;;;;18.10;100545.00;;;;5086742;28;20048;-78
2022/01/07 07:03:36;;;;;;;0.00;0.00;;;;;18.20;100547.00;;;;5087332;28;20092;-75
2022/01/07 07:06:05;;;;;;;0.55;0.30;;;;;18.20;100550.00;;;;5087259;28;20715;-78
2022/01/07 07:08:35;;;;;;;0.00;0.00;;;;;18.20;100544.00;;;;5087588;28;20047;-78
2022/01/07 07:11:04;;;;;;;0.00;0.00;;;;;18.30;100540.00;;;;5086976;28;20837;-78
2022/01/07 07:13:34;;;;;;;0.00;0.00;;;;;18.30;100553.00;;;;5086469;28;20510;-77
2022/01/07 07:16:03;;;;;;;0.00;0.00;;;;;18.20;100558.00;;;;5086676;28;20048;-76
2022/01/07 07:18:33;;;;;;;0.00;0.00;;;;;18.20;100546.00;;;;5087171;28;20052;-75
2022/01/07 07:21:02;;;;;;;0.00;0.00;;;;;18.20;100557.00;;;;5086793;28;20044;-77
2022/01/07 07:23:32;;;;;;;0.00;0.00;;;;;18.10;100568.00;;;;5087068;28;20044;-77
2022/01/07 07:26:01;;;;;;;0.00;0.00;;;;;18.00;100555.00;;;;5086361;28;20044;-79
2022/01/07 07:28:33;;;;;;;0.52;0.13;;;;;18.00;100567.00;;;;5085120;28;20036;-77
2022/01/07 07:31:06;;;;;;;0.00;0.00;;;;;18.00;100561.00;;;;5085278;28;20055;-76
2022/01/07 07:34:06;;;;;;;0.00;0.00;;;;;17.70;100560.00;;;;5085837;28;20040;-76
2022/01/07 07:36:33;;;;;;;0.00;0.00;;;;;17.40;100566.00;;;;5084813;28;20063;-78
2022/01/07 07:39:09;;;;;;;0.00;0.00;;;;;17.20;100558.00;;;;5085493;28;20105;-75
2022/01/07 07:41:39;;;;;;;0.00;0.00;;;;;17.00;100556.00;;;;5085153;28;20497;-75
2022/01/07 07:44:10;;;;;;;0.00;0.00;;;;;16.80;100579.00;;;;5086609;28;20040;-77
2022/01/07 07:46:40;;;;;;;0.00;0.00;;;;;16.60;100569.00;;;;5086236;28;20044;-78
2022/01/07 07:49:10;;;;;;;0.00;0.00;;;;;16.40;100574.00;;;;5086457;28;20071;-77
2022/01/07 07:51:39;;;;;;;0.00;0.00;;;;;16.30;100565.00;;;;5086991;28;20411;-77
2022/01/07 07:54:09;;;;;;;0.00;0.00;;;;;16.20;100568.00;;;;5085440;28;20043;-76
2022/01/07 07:56:39;;;;;;;0.00;0.00;;;;;16.10;100563.00;;;;5086212;28;20064;-75
2022/01/07 07:59:08;;;;;;;0.00;0.00;;;;;16.00;100577.00;;;;5086223;28;20499;-78
2022/01/07 08:01:37;;;;;;;0.00;0.00;;;;;15.90;100566.00;;;;5084645;28;20044;-79
2022/01/07 08:04:10;;;;;;;0.00;0.00;;;;;15.80;100566.00;;;;5086124;28;20114;-76
2022/01/07 08:06:40;;;;;;;0.00;0.00;;;;;15.70;100575.00;;;;5084740;28;20036;-78
2022/01/07 08:09:10;;;;;;;0.00;0.00;;;;;15.70;100572.00;;;;5086480;28;20047;-76
2022/01/07 08:11:51;;;;;;;0.00;0.00;;;;;15.60;100597.00;;;;5086554;28;20040;-75
2022/01/07 08:17:09;;;;;;;0.00;0.00;;;;;15.50;100598.00;;;;5086117;28;20059;-77
2022/01/07 08:19:39;;;;;;;1.02;0.57;;;;;15.40;100578.00;;;;5085937;28;20036;-78
2022/01/07 08:22:11;;;;;;;0.00;0.00;;;;;15.40;100598.00;;;;5084384;28;20502;-77
2022/01/07 08:24:41;;;;;;;0.00;0.00;;;;;15.30;100604.00;;;;5085913;28;20051;-77
2022/01/07 08:27:11;;;;;;;0.00;0.00;;;;;15.30;100591.00;;;;5067955;28;20048;-78
2022/01/07 08:30:10;;;;;;;0.00;0.00;;;;;15.30;100603.00;;;;5086050;28;20064;-78
2022/01/07 08:35:29;;;;;;;0.10;0.10;;;;;15.30;100614.00;;;;5084905;28;20052;-79
2022/01/07 08:37:58;;;;;;;0.00;0.00;;;;;15.30;100601.00;;;;5086166;28;20066;-75
2022/01/07 08:40:28;;;;;;;0.00;0.00;;;;;15.30;100611.00;;;;5086286;28;20040;-78
2022/01/07 08:42:57;;;;;;;0.00;0.00;;;;;15.30;100617.00;;;;5088400;28;20457;-75
2022/01/07 08:45:26;;;;;;;0.00;0.00;;;;;15.30;100617.00;;;;5089404;28;20048;-77
2022/01/07 08:47:56;;;;;;;0.00;0.00;;;;;15.20;100612.00;;;;5088419;28;20154;-75
2022/01/07 08:50:26;;;;;;;0.00;0.00;;;;;15.20;100634.00;;;;5089550;28;20051;-77
2022/01/07 08:53:00;;;;;;;0.00;0.00;;;;;15.30;100623.00;;;;5087987;28;20825;-75
2022/01/07 08:55:30;;;;;;;0.00;0.00;;;;;15.30;100612.00;;;;5088083;28;20511;-77
2022/01/07 08:58:00;;;;;;;0.00;0.00;;;;;15.40;100636.00;;;;5089694;28;20040;-78
2022/01/07 09:00:31;;;;;;;0.00;0.00;;;;;15.40;100628.00;;;;5088167;28;20044;-75
2022/01/07 09:03:00;;;;;;;0.00;0.00;;;;;15.40;100629.00;;;;5088209;28;20054;-79
2022/01/07 09:05:30;;;;;;;0.00;0.00;;;;;15.50;100635.00;;;;5089481;28;20044;-77
2022/01/07 09:08:00;;;;;;;0.00;0.00;;;;;15.50;100639.00;;;;5087270;28;20101;-77
2022/01/07 09:10:30;;;;;;;0.63;0.63;;;;;15.60;100642.00;;;;5087683;28;20044;-80
2022/01/07 09:12:59;;;;;;;0.00;0.00;;;;;15.60;100632.00;;;;5089513;28;20101;-77
2022/01/07 09:15:29;;;;;;;0.00;0.00;;;;;15.60;100621.00;;;;5087548;28;20050;-78
2022/01/07 09:17:59;;;;;;;0.00;0.00;;;;;15.70;100635.00;;;;5087707;28;20434;-77
2022/01/07 09:20:29;;;;;;;0.00;0.00;;;;;15.80;100653.00;;;;5087686;28;20056;-76
2022/01/07 09:22:58;;;;;;;0.00;0.00;;;;;15.90;100645.00;;;;5088729;28;20595;-78
2022/01/07 09:25:27;;;;;;;0.20;0.20;;;;;16.00;100661.00;;;;5088731;28;20040;-80
2022/01/07 09:27:57;;;;;;;0.30;0.30;;;;;16.10;100662.00;;;;5087935;28;20052;-79
2022/01/07 09:30:27;;;;;;;0.00;0.00;;;;;16.20;100654.00;;;;5088751;28;20051;-78
2022/01/07 09:32:56;;;;;;;0.00;0.00;;;;;16.30;100660.00;;;;5088369;28;20097;-74
2022/01/07 09:35:26;;;;;;;0.10;0.10;;;;;16.40;100649.00;;;;5071176;28;20052;-77
2022/01/07 09:37:56;;;;;;;0.20;0.20;;;;;17.40;100591.00;;;;5088612;28;20051;-77
2022/01/07 09:40:25;;;;;;;0.00;0.00;;;;;18.10;100598.00;;;;5092054;28;20032;-76
2022/01/07 09:42:56;;;;;;;0.20;0.20;;;;;18.80;100613.00;;;;5095746;28;20040;-73
2022/01/07 09:45:27;;;;;;;0.00;0.00;;;;;18.10;100654.00;;;;5095574;28;20077;-74
2022/01/07 09:47:58;;;;;;;0.00;0.00;;;;;17.70;100657.00;;;;5094451;28;20051;-73
2022/01/07 09:50:29;;;;;;;0.00;0.00;;;;;17.60;100651.00;;;;5098250;28;20130;-75
2022/01/07 09:53:07;;;;;;;0.00;0.00;;;;;18.00;100649.00;;;;5110033;28;20040;-76
2022/01/07 09:55:37;;;;;;;0.00;0.00;;;;;18.20;100647.00;;;;5111763;28;20040;-76
2022/01/07 09:58:07;;;;;;;0.13;0.13;;;;;19.30;100626.00;;;;5087484;28;20070;-76
2022/01/07 10:00:45;;;;;;;0.03;0.03;;;;;18.70;100661.00;;;;5112480;28;20111;-77
2022/01/07 10:03:17;;;;;;;0.00;0.00;;;;;18.60;100667.00;;;;5113528;28;20051;-78
2022/01/07 10:05:50;;;;;;;0.00;0.00;;;;;18.70;100639.00;;;;5113558;28;20043;-76
2022/01/07 10:08:25;;;;;;;0.00;0.00;;;;;20.20;100609.00;;;;5113064;28;20055;-76
2022/01/07 10:11:24;;;;;;;0.00;0.00;;;;;20.20;100669.00;;;;5099913;28;20521;-75
2022/01/07 10:14:19;;;;;;;0.00;0.00;;;;;19.50;100680.00;;;;5072393;28;20523;-76
2022/01/07 10:16:57;;;;;;;0.00;0.00;;;;;19.50;100677.00;;;;5087542;28;20040;-77
2022/01/07 10:19:32;;;;;;;0.00;0.00;;;;;19.50;100682.00;;;;5088018;28;20040;-78
2022/01/07 10:22:12;;;;;;;0.00;0.00;;;;;19.50;100678.00;;;;5088103;28;20059;-76
2022/01/07 10:25:02;;;;;;;0.40;0.28;;;;;19.70;100693.00;;;;5086982;28;20249;-77
2022/01/07 10:27:39;;;;;;;0.00;0.00;;;;;19.80;100683.00;;;;5088175;28;20044;-75
2022/01/07 10:30:13;;;;;;;0.00;0.00;;;;;20.20;100684.00;;;;5085695;28;20479;-77
2022/01/07 10:32:43;;;;;;;0.00;0.00;;;;;21.00;100666.00;;;;5069787;28;20044;-78
2022/01/07 10:35:14;;;;;;;2.05;1.20;;;;;20.70;100677.00;;;;5085082;28;20048;-77
2022/01/07 10:37:52;;;;;;;0.00;0.00;;;;;20.60;100690.00;;;;5085401;28;20788;-76
2022/01/07 10:40:23;;;;;;;0.00;0.00;;;;;21.10;100677.00;;;;5087775;28;20044;-78
2022/01/07 10:42:54;;;;;;;;;;;;;22.00;100666.00;;;;5088222;28;20745;-78
2022/01/07 10:45:24;;;;;;;0.90;0.32;;;;;22.90;100669.00;;;;5087342;28;20417;-78
2022/01/07 10:47:54;;;;;;;0.00;0.00;;;;;22.70;100700.00;;;;5087086;28;20036;-78
2022/01/07 10:50:24;;;;;;;0.00;0.00;;;;;22.00;100689.00;;;;5087100;28;20040;-75
2022/01/07 10:53:15;;;;;;;0.20;0.20;;;;;22.10;100694.00;;;;5087488;28;20063;-75
2022/01/07 10:56:00;;;;;;;0.00;0.00;;;;;22.50;100694.00;;;;5087034;28;20051;-78
2022/01/07 10:58:43;;;;;;;0.00;0.00;;;;;22.40;100689.00;;;;5086287;28;20285;-78
2022/01/07 11:01:43;;;;;;;0.00;0.00;;;;;22.10;100702.00;;;;5086393;28;20574;-78
2022/01/07 11:04:18;;;;;;;0.00;0.00;;;;;22.10;100685.00;;;;5082256;28;20052;-76
2022/01/07 11:06:53;;;;;;;0.00;0.00;;;;;22.40;100692.00;;;;5086137;28;20075;-78
2022/01/07 11:09:23;;;;;;;0.00;0.00;;;;;22.90;100655.00;;;;5087176;28;20534;-78
2022/01/07 11:12:00;;;;;;;0.00;0.00;;;;;28.90;100524.00;;;;5085934;28;20050;-80
2022/01/07 11:14:35;;;;;;;0.03;0.03;;;;;32.00;100499.00;;;;5085501;28;20048;-79
2022/01/07 11:17:08;;;;;;;14.93;1.65;;;;;32.90;100508.00;;;;5083540;28;20119;-77
2022/01/07 11:19:42;;;;;;;0.00;0.00;;;;;34.10;100483.00;;;;5082682;28;20426;-76
2022/01/07 11:22:14;;;;;;;0.00;0.00;;;;;34.00;100543.00;;;;5082149;28;20801;-77
2022/01/07 11:24:47;;;;;;;0.20;0.20;;;;;32.00;100609.00;;;;5085157;28;20044;-78
2022/01/07 11:27:21;;;;;;;0.00;0.00;;;;;30.60;100465.00;;;;5086672;28;20036;-78
2022/01/07 11:30:10;;;;;;;0.20;0.15;;;;;27.90;100617.00;;;;5085962;28;20040;-77
2022/01/07 11:32:45;;;;;;;0.00;0.00;;;;;27.70;100671.00;;;;5086596;28;20051;-76
2022/01/07 11:35:27;;;;;;;0.10;0.10;;;;;28.20;100696.00;;;;5085483;28;20051;-74
2022/01/07 11:38:00;;;;;;;0.00;0.00;;;;;31.10;100462.00;;;;5086766;28;20051;-76
2022/01/07 11:40:33;;;;;;;2.00;0.63;;;;;30.40;100476.00;;;;5086523;28;20040;-75
2022/01/07 11:43:25;;;;;;;0.30;0.00;;;;;32.00;100598.00;;;;5084487;28;20040;-79
2022/01/07 11:45:56;;;;;;;4.75;0.35;;;;;30.90;100524.00;;;;5086389;28;20072;-80
2022/01/07 11:48:30;;;;;;;0.23;0.10;;;;;27.30;100705.00;;;;5086047;28;20051;-78
2022/01/07 11:50:59;;;;;;;0.30;0.10;;;;;26.50;100640.00;;;;5086105;28;20042;-78
2022/01/07 11:53:43;;;;;;;3.47;0.90;;;;;25.40;100704.00;;;;5085666;28;20040;-76
2022/01/07 11:56:19;;;;;;;0.00;0.00;;;;;25.80;100617.00;;;;5084629;28;20049;-76
2022/01/07 11:58:51;;;;;;;1.80;0.45;;;;;26.50;100622.00;;;;5086084;28;20036;-74
2022/01/07 12:01:30;;;;;;;0.13;0.13;;;;;27.10;100539.00;;;;5086677;28;20487;-75
2022/01/07 12:04:23;;;;;;;0.00;0.00;;;;;26.00;100720.00;;;;5085357;28;20051;-74
2022/01/07 12:06:53;;;;;;;0.00;0.00;;;;;27.10;100628.00;;;;5086111;28;20048;-78
2022/01/07 12:09:32;;;;;;;0.00;0.00;;;;;26.90;100644.00;;;;5085560;28;20430;-80
2022/01/07 12:12:10;;;;;;;0.00;0.00;;;;;26.80;100677.00;;;;5086157;28;20135;-76
2022/01/07 12:14:44;;;;;;;0.00;0.00;;;;;27.60;100653.00;;;;5085738;28;20114;-75
2022/01/07 12:17:17;;;;;;;0.08;0.00;;;;;26.60;100738.00;;;;5087258;28;20094;-75
2022/01/07 12:19:51;;;;;;;0.88;0.50;;;;;27.30;100659.00;;;;5089202;28;20117;-79
2022/01/07 12:22:21;;;;;;;0.13;0.13;;;;;27.60;100706.00;;;;5072190;28;20048;-75
2022/01/07 12:24:58;;;;;;;0.00;0.00;;;;;26.80;100718.00;;;;5090011;28;20031;-76
2022/01/07 12:27:28;;;;;;;0.00;0.00;;;;;27.20;100674.00;;;;5090156;28;20043;-77
2022/01/07 12:29:59;;;;;;;;;;;;;27.90;100720.00;;;;5090355;28;20040;-77
2022/01/07 12:32:32;;;;;;;0.15;0.15;;;;;27.50;100725.00;;;;5090480;28;19924;-76
2022/01/07 12:35:04;;;;;;;0.20;0.10;;;;;26.30;100723.00;;;;5088366;28;20036;-75
2022/01/07 12:37:35;;;;;;;0.30;0.05;;;;;27.20;100671.00;;;;5087878;28;20062;-76